sensor_id;sensor_type;location;lat;lon;timestamp;P1;P2;P0
29460;PMS7003;16428;47.836;35.106;2024-02-23T00:01:34;39.00;30.25;22.50
29460;PMS7003;16428;47.836;35.106;2024-02-23T00:04:01;32.50;31.00;21.75
29460;PMS7003;16428;47.836;35.106;2024-02-23T00:06:29;30.00;23.00;15.50
29460;PMS7003;16428;47.836;35.106;2024-02-23T00:08:56;30.25;28.75;20.75
29460;PMS7003;16428;47.836;35.106;2024-02-23T00:11:24;27.75;24.50;18.00
29460;PMS7003;16428;47.836;35.106;2024-02-23T00:13:51;30.50;22.75;16.25
29460;PMS7003;16428;47.836;35.106;2024-02-23T00:16:19;36.25;29.75;19.25
29460;PMS7003;16428;47.836;35.106;2024-02-23T00:18:46;35.50;25.50;17.00
29460;PMS7003;16428;47.836;35.106;2024-02-23T00:21:13;32.25;30.00;21.75
29460;PMS7003;16428;47.836;35.106;2024-02-23T00:23:41;31.75;24.00;18.25
29460;PMS7003;16428;47.836;35.106;2024-02-23T00:26:08;28.75;28.25;17.75
29460;PMS7003;16428;47.836;35.106;2024-02-23T00:28:35;39.75;29.75;22.00
29460;PMS7003;16428;47.836;35.106;2024-02-23T00:31:02;40.50;28.75;21.25
29460;PMS7003;16428;47.836;35.106;2024-02-23T00:33:29;35.00;32.75;21.50
29460;PMS7003;16428;47.836;35.106;2024-02-23T00:35:56;27.50;24.25;17.50
29460;PMS7003;16428;47.836;35.106;2024-02-23T00:38:23;24.75;21.50;16.50
29460;PMS7003;16428;47.836;35.106;2024-02-23T00:40:51;20.75;13.50;12.50
29460;PMS7003;16428;47.836;35.106;2024-02-23T00:43:19;28.25;27.75;18.25
29460;PMS7003;16428;47.836;35.106;2024-02-23T00:45:46;25.50;17.75;9.50
29460;PMS7003;16428;47.836;35.106;2024-02-23T00:48:13;25.00;22.00;14.00
29460;PMS7003;16428;47.836;35.106;2024-02-23T00:50:40;28.00;25.25;18.00
29460;PMS7003;16428;47.836;35.106;2024-02-23T00:53:07;27.00;25.50;19.50
29460;PMS7003;16428;47.836;35.106;2024-02-23T00:55:34;27.00;24.00;18.50
29460;PMS7003;16428;47.836;35.106;2024-02-23T00:58:03;26.50;26.50;17.50
29460;PMS7003;16428;47.836;35.106;2024-02-23T01:00:30;33.00;31.00;22.75
29460;PMS7003;16428;47.836;35.106;2024-02-23T01:02:57;27.50;26.50;20.75
29460;PMS7003;16428;47.836;35.106;2024-02-23T01:05:26;31.75;25.75;20.50
29460;PMS7003;16428;47.836;35.106;2024-02-23T01:07:53;31.25;31.25;19.25
29460;PMS7003;16428;47.836;35.106;2024-02-23T01:10:20;23.50;23.50;17.50
29460;PMS7003;16428;47.836;35.106;2024-02-23T01:12:47;28.00;24.25;16.00
29460;PMS7003;16428;47.836;35.106;2024-02-23T01:15:14;29.75;29.75;18.25
29460;PMS7003;16428;47.836;35.106;2024-02-23T01:17:41;29.00;23.75;16.50
29460;PMS7003;16428;47.836;35.106;2024-02-23T01:20:09;30.50;23.00;16.00
29460;PMS7003;16428;47.836;35.106;2024-02-23T01:22:36;34.33;30.33;21.67
29460;PMS7003;16428;47.836;35.106;2024-02-23T01:25:04;26.50;24.75;20.00
29460;PMS7003;16428;47.836;35.106;2024-02-23T01:27:31;32.00;27.00;19.25
29460;PMS7003;16428;47.836;35.106;2024-02-23T01:29:58;28.25;26.50;20.50
29460;PMS7003;16428;47.836;35.106;2024-02-23T01:32:25;25.75;24.25;17.25
29460;PMS7003;16428;47.836;35.106;2024-02-23T01:34:53;32.50;27.75;15.25
29460;PMS7003;16428;47.836;35.106;2024-02-23T01:37:20;26.50;19.25;15.75
29460;PMS7003;16428;47.836;35.106;2024-02-23T01:39:51;26.00;19.00;15.50
29460;PMS7003;16428;47.836;35.106;2024-02-23T01:42:18;34.25;25.25;16.00
29460;PMS7003;16428;47.836;35.106;2024-02-23T01:44:45;28.75;23.75;17.50
29460;PMS7003;16428;47.836;35.106;2024-02-23T01:47:12;21.25;18.75;11.50
29460;PMS7003;16428;47.836;35.106;2024-02-23T01:49:39;18.25;18.25;12.50
29460;PMS7003;16428;47.836;35.106;2024-02-23T01:52:06;34.50;30.25;20.25
29460;PMS7003;16428;47.836;35.106;2024-02-23T01:54:33;28.25;25.50;17.25
29460;PMS7003;16428;47.836;35.106;2024-02-23T01:57:01;31.75;26.75;18.75
29460;PMS7003;16428;47.836;35.106;2024-02-23T01:59:48;27.50;24.50;16.25
29460;PMS7003;16428;47.836;35.106;2024-02-23T02:02:16;26.00;17.75;13.25
29460;PMS7003;16428;47.836;35.106;2024-02-23T02:04:43;32.75;28.50;19.00
29460;PMS7003;16428;47.836;35.106;2024-02-23T02:07:10;26.75;24.00;17.75
29460;PMS7003;16428;47.836;35.106;2024-02-23T02:09:37;30.25;25.50;18.00
29460;PMS7003;16428;47.836;35.106;2024-02-23T02:12:04;35.75;27.00;17.00
29460;PMS7003;16428;47.836;35.106;2024-02-23T02:14:32;32.00;29.00;20.75
29460;PMS7003;16428;47.836;35.106;2024-02-23T02:17:00;25.50;23.75;17.75
29460;PMS7003;16428;47.836;35.106;2024-02-23T02:19:27;28.75;28.00;20.25
29460;PMS7003;16428;47.836;35.106;2024-02-23T02:21:54;27.25;26.50;18.25
29460;PMS7003;16428;47.836;35.106;2024-02-23T02:24:22;29.00;26.25;17.75
29460;PMS7003;16428;47.836;35.106;2024-02-23T02:26:51;32.00;24.25;18.25
29460;PMS7003;16428;47.836;35.106;2024-02-23T02:29:18;30.00;27.33;19.67
29460;PMS7003;16428;47.836;35.106;2024-02-23T02:31:46;31.75;26.75;22.50
29460;PMS7003;16428;47.836;35.106;2024-02-23T02:34:13;30.50;24.75;16.50
29460;PMS7003;16428;47.836;35.106;2024-02-23T02:36:41;28.67;28.67;23.33
29460;PMS7003;16428;47.836;35.106;2024-02-23T02:39:08;33.50;32.00;19.50
29460;PMS7003;16428;47.836;35.106;2024-02-23T02:41:37;29.75;26.50;20.75
29460;PMS7003;16428;47.836;35.106;2024-02-23T02:44:04;35.25;26.00;19.50
29460;PMS7003;16428;47.836;35.106;2024-02-23T02:46:31;32.25;30.75;21.50
29460;PMS7003;16428;47.836;35.106;2024-02-23T02:48:58;34.75;29.00;19.25
29460;PMS7003;16428;47.836;35.106;2024-02-23T02:51:25;32.75;26.50;19.00
29460;PMS7003;16428;47.836;35.106;2024-02-23T02:53:52;30.25;27.00;18.00
29460;PMS7003;16428;47.836;35.106;2024-02-23T02:56:19;34.75;26.00;18.00
29460;PMS7003;16428;47.836;35.106;2024-02-23T02:58:46;32.00;27.50;17.50
29460;PMS7003;16428;47.836;35.106;2024-02-23T03:01:13;29.00;24.75;17.50
29460;PMS7003;16428;47.836;35.106;2024-02-23T03:03:40;33.75;28.50;19.75
29460;PMS7003;16428;47.836;35.106;2024-02-23T03:06:07;30.75;26.75;19.00
29460;PMS7003;16428;47.836;35.106;2024-02-23T03:08:35;34.25;24.50;16.00
29460;PMS7003;16428;47.836;35.106;2024-02-23T03:11:02;20.50;15.75;12.75
29460;PMS7003;16428;47.836;35.106;2024-02-23T03:13:29;38.75;28.50;20.75
29460;PMS7003;16428;47.836;35.106;2024-02-23T03:15:58;42.00;32.25;24.00
29460;PMS7003;16428;47.836;35.106;2024-02-23T03:18:25;32.00;25.00;19.25
29460;PMS7003;16428;47.836;35.106;2024-02-23T03:20:54;37.25;27.25;18.00
29460;PMS7003;16428;47.836;35.106;2024-02-23T03:23:22;28.25;24.25;18.00
29460;PMS7003;16428;47.836;35.106;2024-02-23T03:25:49;33.75;28.25;19.75
29460;PMS7003;16428;47.836;35.106;2024-02-23T03:28:19;33.25;30.00;23.00
29460;PMS7003;16428;47.836;35.106;2024-02-23T03:30:46;30.25;23.25;19.00
29460;PMS7003;16428;47.836;35.106;2024-02-23T03:33:13;34.00;32.75;22.50
29460;PMS7003;16428;47.836;35.106;2024-02-23T03:35:40;34.50;27.50;21.00
29460;PMS7003;16428;47.836;35.106;2024-02-23T03:38:07;32.00;32.00;21.50
29460;PMS7003;16428;47.836;35.106;2024-02-23T03:40:35;36.00;27.67;16.00
29460;PMS7003;16428;47.836;35.106;2024-02-23T03:43:02;31.50;30.00;21.00
29460;PMS7003;16428;47.836;35.106;2024-02-23T03:45:30;33.25;30.25;21.75
29460;PMS7003;16428;47.836;35.106;2024-02-23T03:47:58;27.25;26.50;18.75
29460;PMS7003;16428;47.836;35.106;2024-02-23T03:50:26;31.50;28.25;20.00
29460;PMS7003;16428;47.836;35.106;2024-02-23T03:52:53;29.75;27.50;22.75
29460;PMS7003;16428;47.836;35.106;2024-02-23T03:55:20;31.75;27.50;18.00
29460;PMS7003;16428;47.836;35.106;2024-02-23T03:57:48;36.75;22.50;12.50
29460;PMS7003;16428;47.836;35.106;2024-02-23T04:00:15;29.00;23.00;17.00
29460;PMS7003;16428;47.836;35.106;2024-02-23T04:02:43;28.00;26.00;18.75
29460;PMS7003;16428;47.836;35.106;2024-02-23T04:05:10;32.25;30.50;23.50
29460;PMS7003;16428;47.836;35.106;2024-02-23T04:07:37;34.25;29.50;19.00
29460;PMS7003;16428;47.836;35.106;2024-02-23T04:10:04;35.00;32.67;20.33
29460;PMS7003;16428;47.836;35.106;2024-02-23T04:12:31;34.25;29.25;21.50
29460;PMS7003;16428;47.836;35.106;2024-02-23T04:14:58;27.75;25.25;18.75
29460;PMS7003;16428;47.836;35.106;2024-02-23T04:17:25;29.50;26.00;18.75
29460;PMS7003;16428;47.836;35.106;2024-02-23T04:19:52;29.75;25.25;19.25
29460;PMS7003;16428;47.836;35.106;2024-02-23T04:22:19;40.00;30.33;23.33
29460;PMS7003;16428;47.836;35.106;2024-02-23T04:24:46;38.25;29.50;22.00
29460;PMS7003;16428;47.836;35.106;2024-02-23T04:27:13;33.50;30.25;22.25
29460;PMS7003;16428;47.836;35.106;2024-02-23T04:29:40;40.67;32.67;23.67
29460;PMS7003;16428;47.836;35.106;2024-02-23T04:32:07;36.50;31.25;21.25
29460;PMS7003;16428;47.836;35.106;2024-02-23T04:34:34;29.00;27.50;20.75
29460;PMS7003;16428;47.836;35.106;2024-02-23T04:37:01;33.50;29.25;22.25
29460;PMS7003;16428;47.836;35.106;2024-02-23T04:39:28;40.50;31.00;21.75
29460;PMS7003;16428;47.836;35.106;2024-02-23T04:41:55;39.25;30.25;22.25
29460;PMS7003;16428;47.836;35.106;2024-02-23T04:44:22;38.25;35.25;23.25
29460;PMS7003;16428;47.836;35.106;2024-02-23T04:46:49;25.00;18.75;14.00
29460;PMS7003;16428;47.836;35.106;2024-02-23T04:49:16;24.33;21.00;17.33
29460;PMS7003;16428;47.836;35.106;2024-02-23T04:51:43;33.00;26.00;19.25
29460;PMS7003;16428;47.836;35.106;2024-02-23T04:54:10;41.33;30.33;21.33
29460;PMS7003;16428;47.836;35.106;2024-02-23T04:56:38;32.25;24.75;18.00
29460;PMS7003;16428;47.836;35.106;2024-02-23T04:59:05;36.25;27.25;18.75
29460;PMS7003;16428;47.836;35.106;2024-02-23T05:01:36;28.67;24.67;19.00
29460;PMS7003;16428;47.836;35.106;2024-02-23T05:04:04;33.00;29.75;22.75
29460;PMS7003;16428;47.836;35.106;2024-02-23T05:06:31;30.25;26.25;18.75
29460;PMS7003;16428;47.836;35.106;2024-02-23T05:08:58;38.00;28.00;17.75
29460;PMS7003;16428;47.836;35.106;2024-02-23T05:11:25;38.50;34.50;22.50
29460;PMS7003;16428;47.836;35.106;2024-02-23T05:13:53;33.00;31.25;20.25
29460;PMS7003;16428;47.836;35.106;2024-02-23T05:16:20;30.25;29.00;22.00
29460;PMS7003;16428;47.836;35.106;2024-02-23T05:18:47;37.25;28.00;21.00
29460;PMS7003;16428;47.836;35.106;2024-02-23T05:21:14;37.25;30.25;23.00
29460;PMS7003;16428;47.836;35.106;2024-02-23T05:23:42;33.00;27.00;19.00
29460;PMS7003;16428;47.836;35.106;2024-02-23T05:26:09;55.00;43.67;30.00
29460;PMS7003;16428;47.836;35.106;2024-02-23T05:28:37;38.75;29.25;19.50
29460;PMS7003;16428;47.836;35.106;2024-02-23T05:31:06;37.75;29.50;17.50
29460;PMS7003;16428;47.836;35.106;2024-02-23T05:33:33;37.25;31.25;23.25
29460;PMS7003;16428;47.836;35.106;2024-02-23T05:36:00;23.25;22.75;18.50
29460;PMS7003;16428;47.836;35.106;2024-02-23T05:38:27;34.75;25.25;15.50
29460;PMS7003;16428;47.836;35.106;2024-02-23T05:40:54;33.00;28.50;18.00
29460;PMS7003;16428;47.836;35.106;2024-02-23T05:43:21;35.25;32.25;21.25
29460;PMS7003;16428;47.836;35.106;2024-02-23T05:45:48;33.25;32.50;22.50
29460;PMS7003;16428;47.836;35.106;2024-02-23T05:48:16;38.00;28.75;22.25
29460;PMS7003;16428;47.836;35.106;2024-02-23T05:50:45;33.00;29.00;22.75
29460;PMS7003;16428;47.836;35.106;2024-02-23T05:53:12;32.50;28.75;21.00
29460;PMS7003;16428;47.836;35.106;2024-02-23T05:55:42;37.00;31.50;24.50
29460;PMS7003;16428;47.836;35.106;2024-02-23T05:58:09;28.25;25.25;17.25
29460;PMS7003;16428;47.836;35.106;2024-02-23T06:00:36;29.25;27.50;20.00
29460;PMS7003;16428;47.836;35.106;2024-02-23T06:03:04;31.50;30.00;20.75
29460;PMS7003;16428;47.836;35.106;2024-02-23T06:05:31;34.50;30.25;20.50
29460;PMS7003;16428;47.836;35.106;2024-02-23T06:07:58;53.25;37.50;24.00
29460;PMS7003;16428;47.836;35.106;2024-02-23T06:10:25;30.25;27.25;21.75
29460;PMS7003;16428;47.836;35.106;2024-02-23T06:12:52;27.50;26.25;17.75
29460;PMS7003;16428;47.836;35.106;2024-02-23T06:15:22;36.25;31.00;20.50
29460;PMS7003;16428;47.836;35.106;2024-02-23T06:17:49;37.00;29.75;21.50
29460;PMS7003;16428;47.836;35.106;2024-02-23T06:20:17;33.25;27.25;18.00
29460;PMS7003;16428;47.836;35.106;2024-02-23T06:22:44;26.00;23.25;17.00
29460;PMS7003;16428;47.836;35.106;2024-02-23T06:25:11;37.00;28.50;20.75
29460;PMS7003;16428;47.836;35.106;2024-02-23T06:27:38;31.00;26.75;19.25
29460;PMS7003;16428;47.836;35.106;2024-02-23T06:30:06;37.75;29.00;18.50
29460;PMS7003;16428;47.836;35.106;2024-02-23T06:32:34;26.25;24.25;18.25
29460;PMS7003;16428;47.836;35.106;2024-02-23T06:35:02;37.75;29.50;21.25
29460;PMS7003;16428;47.836;35.106;2024-02-23T06:37:30;29.75;25.25;18.00
29460;PMS7003;16428;47.836;35.106;2024-02-23T06:39:57;37.00;28.25;20.50
29460;PMS7003;16428;47.836;35.106;2024-02-23T06:42:24;32.00;22.25;14.00
29460;PMS7003;16428;47.836;35.106;2024-02-23T06:44:52;31.50;23.50;18.25
29460;PMS7003;16428;47.836;35.106;2024-02-23T06:47:20;39.00;27.25;21.00
29460;PMS7003;16428;47.836;35.106;2024-02-23T06:49:47;30.50;23.75;17.00
29460;PMS7003;16428;47.836;35.106;2024-02-23T06:52:15;34.25;29.50;20.50
29460;PMS7003;16428;47.836;35.106;2024-02-23T06:54:42;24.25;21.25;13.00
29460;PMS7003;16428;47.836;35.106;2024-02-23T06:57:09;33.75;27.25;18.50
29460;PMS7003;16428;47.836;35.106;2024-02-23T06:59:36;25.50;20.50;13.50
29460;PMS7003;16428;47.836;35.106;2024-02-23T07:02:03;32.75;28.75;21.25
29460;PMS7003;16428;47.836;35.106;2024-02-23T07:04:31;12.50;6.50;6.50
29460;PMS7003;16428;47.836;35.106;2024-02-23T07:06:59;33.25;27.25;20.50
29460;PMS7003;16428;47.836;35.106;2024-02-23T07:09:26;26.50;21.25;15.00
29460;PMS7003;16428;47.836;35.106;2024-02-23T07:11:53;29.50;21.00;16.25
29460;PMS7003;16428;47.836;35.106;2024-02-23T07:14:20;33.75;25.75;16.75
29460;PMS7003;16428;47.836;35.106;2024-02-23T07:16:49;31.50;28.25;20.00
29460;PMS7003;16428;47.836;35.106;2024-02-23T07:19:16;34.50;30.75;23.00
29460;PMS7003;16428;47.836;35.106;2024-02-23T07:21:43;28.50;24.25;18.00
29460;PMS7003;16428;47.836;35.106;2024-02-23T07:24:10;25.25;18.25;12.75
29460;PMS7003;16428;47.836;35.106;2024-02-23T07:26:38;27.00;23.75;18.25
29460;PMS7003;16428;47.836;35.106;2024-02-23T07:29:05;28.50;26.50;20.25
29460;PMS7003;16428;47.836;35.106;2024-02-23T07:31:33;23.25;22.75;15.25
29460;PMS7003;16428;47.836;35.106;2024-02-23T07:34:01;27.50;27.50;18.50
29460;PMS7003;16428;47.836;35.106;2024-02-23T07:36:29;25.50;24.50;16.25
29460;PMS7003;16428;47.836;35.106;2024-02-23T07:38:56;38.25;33.25;22.50
29460;PMS7003;16428;47.836;35.106;2024-02-23T07:41:23;33.25;28.00;18.25
29460;PMS7003;16428;47.836;35.106;2024-02-23T07:43:51;28.50;21.50;15.50
29460;PMS7003;16428;47.836;35.106;2024-02-23T07:46:18;31.50;25.00;19.00
29460;PMS7003;16428;47.836;35.106;2024-02-23T07:48:47;30.50;30.50;19.50
29460;PMS7003;16428;47.836;35.106;2024-02-23T07:51:15;37.50;32.00;23.25
29460;PMS7003;16428;47.836;35.106;2024-02-23T07:53:42;27.50;25.25;20.00
29460;PMS7003;16428;47.836;35.106;2024-02-23T07:56:09;32.25;24.25;17.75
29460;PMS7003;16428;47.836;35.106;2024-02-23T07:58:36;26.00;21.50;14.25
29460;PMS7003;16428;47.836;35.106;2024-02-23T08:01:03;36.75;33.75;24.00
29460;PMS7003;16428;47.836;35.106;2024-02-23T08:03:30;28.00;27.00;20.50
29460;PMS7003;16428;47.836;35.106;2024-02-23T08:05:58;26.00;23.75;16.75
29460;PMS7003;16428;47.836;35.106;2024-02-23T08:08:29;29.00;27.50;17.00
29460;PMS7003;16428;47.836;35.106;2024-02-23T08:10:59;37.00;31.25;21.00
29460;PMS7003;16428;47.836;35.106;2024-02-23T08:13:26;27.75;24.50;17.25
29460;PMS7003;16428;47.836;35.106;2024-02-23T08:15:54;27.75;19.75;14.50
29460;PMS7003;16428;47.836;35.106;2024-02-23T08:18:21;27.50;25.50;18.75
29460;PMS7003;16428;47.836;35.106;2024-02-23T08:20:51;34.00;24.50;16.00
29460;PMS7003;16428;47.836;35.106;2024-02-23T08:23:18;33.00;27.75;20.50
29460;PMS7003;16428;47.836;35.106;2024-02-23T08:25:49;31.00;26.25;19.50
29460;PMS7003;16428;47.836;35.106;2024-02-23T08:28:20;28.50;26.00;17.25
29460;PMS7003;16428;47.836;35.106;2024-02-23T08:30:48;33.25;30.75;21.00
29460;PMS7003;16428;47.836;35.106;2024-02-23T08:33:15;26.50;25.75;20.75
29460;PMS7003;16428;47.836;35.106;2024-02-23T08:35:43;32.00;26.50;19.75
29460;PMS7003;16428;47.836;35.106;2024-02-23T08:38:10;31.25;26.00;20.25
29460;PMS7003;16428;47.836;35.106;2024-02-23T08:40:38;27.75;26.75;20.25
29460;PMS7003;16428;47.836;35.106;2024-02-23T08:43:06;33.00;33.00;22.00
29460;PMS7003;16428;47.836;35.106;2024-02-23T08:45:34;30.00;29.00;21.75
29460;PMS7003;16428;47.836;35.106;2024-02-23T08:48:01;27.00;26.75;18.50
29460;PMS7003;16428;47.836;35.106;2024-02-23T08:50:28;31.75;28.75;19.50
29460;PMS7003;16428;47.836;35.106;2024-02-23T08:52:56;40.50;32.50;21.50
29460;PMS7003;16428;47.836;35.106;2024-02-23T08:55:23;34.25;25.25;20.00
29460;PMS7003;16428;47.836;35.106;2024-02-23T08:57:50;23.50;18.25;11.50
29460;PMS7003;16428;47.836;35.106;2024-02-23T09:00:17;34.75;25.00;22.25
29460;PMS7003;16428;47.836;35.106;2024-02-23T09:02:45;34.50;30.00;19.50
29460;PMS7003;16428;47.836;35.106;2024-02-23T09:05:12;35.25;29.00;18.25
29460;PMS7003;16428;47.836;35.106;2024-02-23T09:07:39;29.25;25.00;19.75
29460;PMS7003;16428;47.836;35.106;2024-02-23T09:10:07;35.00;31.50;21.50
29460;PMS7003;16428;47.836;35.106;2024-02-23T09:12:35;29.50;27.25;19.00
29460;PMS7003;16428;47.836;35.106;2024-02-23T09:15:02;28.00;26.75;18.25
29460;PMS7003;16428;47.836;35.106;2024-02-23T09:17:30;31.50;29.50;21.00
29460;PMS7003;16428;47.836;35.106;2024-02-23T09:19:57;30.00;27.25;19.00
29460;PMS7003;16428;47.836;35.106;2024-02-23T09:22:25;29.50;26.00;19.75
29460;PMS7003;16428;47.836;35.106;2024-02-23T09:24:52;26.25;23.50;17.00
29460;PMS7003;16428;47.836;35.106;2024-02-23T09:27:22;37.00;29.50;22.50
29460;PMS7003;16428;47.836;35.106;2024-02-23T09:29:49;30.25;26.00;18.00
29460;PMS7003;16428;47.836;35.106;2024-02-23T09:32:16;22.75;19.00;12.75
29460;PMS7003;16428;47.836;35.106;2024-02-23T09:34:44;36.50;27.25;18.25
29460;PMS7003;16428;47.836;35.106;2024-02-23T09:37:11;25.75;25.00;19.00
29460;PMS7003;16428;47.836;35.106;2024-02-23T09:39:38;25.50;23.50;13.00
29460;PMS7003;16428;47.836;35.106;2024-02-23T09:42:07;32.25;28.25;21.00
29460;PMS7003;16428;47.836;35.106;2024-02-23T09:44:37;26.00;22.25;17.25
29460;PMS7003;16428;47.836;35.106;2024-02-23T09:47:04;27.25;24.75;20.50
29460;PMS7003;16428;47.836;35.106;2024-02-23T09:49:40;33.50;26.50;17.25
29460;PMS7003;16428;47.836;35.106;2024-02-23T09:52:07;26.25;21.50;11.00
29460;PMS7003;16428;47.836;35.106;2024-02-23T09:54:38;24.50;24.25;18.00
29460;PMS7003;16428;47.836;35.106;2024-02-23T09:57:07;21.50;19.00;13.00
29460;PMS7003;16428;47.836;35.106;2024-02-23T09:59:36;27.50;25.25;18.75
29460;PMS7003;16428;47.836;35.106;2024-02-23T10:02:05;20.25;20.25;14.00
29460;PMS7003;16428;47.836;35.106;2024-02-23T10:04:36;24.00;21.25;13.50
29460;PMS7003;16428;47.836;35.106;2024-02-23T10:07:03;32.25;28.75;20.00
29460;PMS7003;16428;47.836;35.106;2024-02-23T10:09:31;29.50;26.50;16.00
29460;PMS7003;16428;47.836;35.106;2024-02-23T10:11:58;27.50;25.00;18.00
29460;PMS7003;16428;47.836;35.106;2024-02-23T10:14:25;27.50;24.75;18.75
29460;PMS7003;16428;47.836;35.106;2024-02-23T10:16:53;24.75;23.50;15.75
29460;PMS7003;16428;47.836;35.106;2024-02-23T10:19:22;24.25;22.25;16.75
29460;PMS7003;16428;47.836;35.106;2024-02-23T10:21:49;25.25;24.50;17.50
29460;PMS7003;16428;47.836;35.106;2024-02-23T10:24:17;27.25;22.75;15.75
29460;PMS7003;16428;47.836;35.106;2024-02-23T10:26:44;24.00;24.00;17.00
29460;PMS7003;16428;47.836;35.106;2024-02-23T10:29:12;25.00;22.25;16.25
29460;PMS7003;16428;47.836;35.106;2024-02-23T10:31:43;28.50;20.00;14.50
29460;PMS7003;16428;47.836;35.106;2024-02-23T10:34:18;28.25;22.75;17.00
29460;PMS7003;16428;47.836;35.106;2024-02-23T10:36:46;25.75;18.25;14.50
29460;PMS7003;16428;47.836;35.106;2024-02-23T10:39:15;30.25;23.00;17.00
29460;PMS7003;16428;47.836;35.106;2024-02-23T10:41:47;23.00;22.67;15.33
29460;PMS7003;16428;47.836;35.106;2024-02-23T10:44:20;28.00;23.75;18.50
29460;PMS7003;16428;47.836;35.106;2024-02-23T10:46:48;26.00;23.00;13.00
29460;PMS7003;16428;47.836;35.106;2024-02-23T10:49:18;22.25;22.25;17.25
29460;PMS7003;16428;47.836;35.106;2024-02-23T10:51:49;29.50;25.75;15.00
29460;PMS7003;16428;47.836;35.106;2024-02-23T10:54:18;18.75;17.75;14.50
29460;PMS7003;16428;47.836;35.106;2024-02-23T10:56:48;23.50;17.25;11.25
29460;PMS7003;16428;47.836;35.106;2024-02-23T10:59:17;20.75;20.75;14.50
29460;PMS7003;16428;47.836;35.106;2024-02-23T11:01:49;25.75;24.00;17.75
29460;PMS7003;16428;47.836;35.106;2024-02-23T11:04:18;22.75;14.25;11.75
29460;PMS7003;16428;47.836;35.106;2024-02-23T11:06:51;16.33;15.67;11.67
29460;PMS7003;16428;47.836;35.106;2024-02-23T11:09:23;24.67;18.67;13.67
29460;PMS7003;16428;47.836;35.106;2024-02-23T11:11:53;23.00;23.00;17.00
29460;PMS7003;16428;47.836;35.106;2024-02-23T11:14:32;17.00;12.33;9.00
29460;PMS7003;16428;47.836;35.106;2024-02-23T11:17:03;16.00;15.00;11.00
29460;PMS7003;16428;47.836;35.106;2024-02-23T11:19:38;21.00;20.00;15.00
29460;PMS7003;16428;47.836;35.106;2024-02-23T11:22:09;19.33;17.00;13.00
29460;PMS7003;16428;47.836;35.106;2024-02-23T11:24:48;19.67;18.67;15.33
29460;PMS7003;16428;47.836;35.106;2024-02-23T11:27:20;22.00;17.00;12.67
29460;PMS7003;16428;47.836;35.106;2024-02-23T11:29:58;24.00;19.00;15.00
29460;PMS7003;16428;47.836;35.106;2024-02-23T11:32:38;24.67;20.33;12.67
29460;PMS7003;16428;47.836;35.106;2024-02-23T11:35:08;13.67;13.67;9.67
29460;PMS7003;16428;47.836;35.106;2024-02-23T11:37:47;19.67;16.33;12.67
29460;PMS7003;16428;47.836;35.106;2024-02-23T11:40:18;19.00;16.33;11.67
29460;PMS7003;16428;47.836;35.106;2024-02-23T11:42:46;18.33;16.67;13.67
29460;PMS7003;16428;47.836;35.106;2024-02-23T11:45:14;23.00;16.33;12.33
29460;PMS7003;16428;47.836;35.106;2024-02-23T11:47:41;14.67;14.67;10.00
29460;PMS7003;16428;47.836;35.106;2024-02-23T11:50:09;15.33;14.67;10.67
29460;PMS7003;16428;47.836;35.106;2024-02-23T11:52:37;17.67;14.33;10.00
29460;PMS7003;16428;47.836;35.106;2024-02-23T11:55:05;18.67;17.67;12.00
29460;PMS7003;16428;47.836;35.106;2024-02-23T11:57:33;23.00;17.33;12.67
29460;PMS7003;16428;47.836;35.106;2024-02-23T12:00:13;21.67;18.33;13.33
29460;PMS7003;16428;47.836;35.106;2024-02-23T12:02:42;17.00;14.33;9.33
29460;PMS7003;16428;47.836;35.106;2024-02-23T12:05:11;19.67;15.00;10.00
29460;PMS7003;16428;47.836;35.106;2024-02-23T12:07:40;22.33;16.00;11.00
29460;PMS7003;16428;47.836;35.106;2024-02-23T12:10:12;14.67;14.00;10.00
29460;PMS7003;16428;47.836;35.106;2024-02-23T12:12:40;16.33;13.33;11.00
29460;PMS7003;16428;47.836;35.106;2024-02-23T12:15:07;14.67;12.33;9.33
29460;PMS7003;16428;47.836;35.106;2024-02-23T12:17:35;16.75;16.75;13.25
29460;PMS7003;16428;47.836;35.106;2024-02-23T12:20:04;12.33;11.00;9.00
29460;PMS7003;16428;47.836;35.106;2024-02-23T12:22:35;12.75;10.00;9.75
29460;PMS7003;16428;47.836;35.106;2024-02-23T12:25:02;11.67;11.67;10.00
29460;PMS7003;16428;47.836;35.106;2024-02-23T12:27:29;16.00;14.00;10.67
29460;PMS7003;16428;47.836;35.106;2024-02-23T12:29:57;14.33;14.33;10.00
29460;PMS7003;16428;47.836;35.106;2024-02-23T12:32:24;11.67;11.67;10.00
29460;PMS7003;16428;47.836;35.106;2024-02-23T12:34:52;15.00;15.00;11.00
29460;PMS7003;16428;47.836;35.106;2024-02-23T12:37:20;12.67;12.67;9.67
29460;PMS7003;16428;47.836;35.106;2024-02-23T12:39:49;12.33;10.00;8.00
29460;PMS7003;16428;47.836;35.106;2024-02-23T12:42:17;11.00;10.50;8.50
29460;PMS7003;16428;47.836;35.106;2024-02-23T12:44:45;23.25;17.50;11.75
29460;PMS7003;16428;47.836;35.106;2024-02-23T12:47:12;15.50;14.50;12.00
29460;PMS7003;16428;47.836;35.106;2024-02-23T12:49:39;13.00;13.00;9.75
29460;PMS7003;16428;47.836;35.106;2024-02-23T12:52:11;11.75;9.00;6.25
29460;PMS7003;16428;47.836;35.106;2024-02-23T12:54:39;13.00;12.00;9.00
29460;PMS7003;16428;47.836;35.106;2024-02-23T12:57:06;12.75;11.75;10.00
29460;PMS7003;16428;47.836;35.106;2024-02-23T12:59:34;11.00;11.00;9.00
29460;PMS7003;16428;47.836;35.106;2024-02-23T13:02:01;14.00;12.00;9.00
29460;PMS7003;16428;47.836;35.106;2024-02-23T13:04:29;15.25;15.25;11.25
29460;PMS7003;16428;47.836;35.106;2024-02-23T13:06:56;10.67;10.67;9.00
29460;PMS7003;16428;47.836;35.106;2024-02-23T13:09:25;18.00;14.33;9.33
29460;PMS7003;16428;47.836;35.106;2024-02-23T13:11:52;19.50;15.50;9.25
29460;PMS7003;16428;47.836;35.106;2024-02-23T13:14:20;12.00;12.00;9.67
29460;PMS7003;16428;47.836;35.106;2024-02-23T13:16:47;13.33;13.33;9.33
29460;PMS7003;16428;47.836;35.106;2024-02-23T13:19:20;13.67;11.33;9.33
29460;PMS7003;16428;47.836;35.106;2024-02-23T13:21:49;13.00;11.00;8.33
29460;PMS7003;16428;47.836;35.106;2024-02-23T13:24:17;14.67;10.00;9.00
29460;PMS7003;16428;47.836;35.106;2024-02-23T13:26:48;8.33;7.67;6.67
29460;PMS7003;16428;47.836;35.106;2024-02-23T13:29:17;14.00;10.67;7.00
29460;PMS7003;16428;47.836;35.106;2024-02-23T13:31:44;12.67;12.00;10.67
29460;PMS7003;16428;47.836;35.106;2024-02-23T13:34:13;5.50;5.50;3.50
29460;PMS7003;16428;47.836;35.106;2024-02-23T13:36:43;16.75;12.75;11.25
29460;PMS7003;16428;47.836;35.106;2024-02-23T13:39:12;9.50;7.75;5.00
29460;PMS7003;16428;47.836;35.106;2024-02-23T13:41:41;13.50;12.25;9.75